sensor_id;sensor_type;location;lat;lon;timestamp;temperature;humidity
8095;DHT22;4090;49.270;8.696;2023-06-22T00:02:30;26.60;99.90
8095;DHT22;4090;49.270;8.696;2023-06-22T00:05:12;26.60;99.90
8095;DHT22;4090;49.270;8.696;2023-06-22T00:07:55;26.50;99.90
8095;DHT22;4090;49.270;8.696;2023-06-22T00:10:37;26.50;99.90
8095;DHT22;4090;49.270;8.696;2023-06-22T00:13:19;26.50;99.90
8095;DHT22;4090;49.270;8.696;2023-06-22T00:16:01;26.50;99.90
8095;DHT22;4090;49.270;8.696;2023-06-22T00:18:43;26.40;99.90
8095;DHT22;4090;49.270;8.696;2023-06-22T00:21:27;26.40;99.90
8095;DHT22;4090;49.270;8.696;2023-06-22T00:24:10;26.40;99.90
8095;DHT22;4090;49.270;8.696;2023-06-22T00:26:52;26.40;99.90
8095;DHT22;4090;49.270;8.696;2023-06-22T00:29:34;26.40;99.90
8095;DHT22;4090;49.270;8.696;2023-06-22T00:32:16;26.30;99.90
8095;DHT22;4090;49.270;8.696;2023-06-22T00:35:01;26.40;99.90
8095;DHT22;4090;49.270;8.696;2023-06-22T00:37:44;26.30;99.90
8095;DHT22;4090;49.270;8.696;2023-06-22T00:40:28;26.30;99.90
8095;DHT22;4090;49.270;8.696;2023-06-22T00:43:09;26.30;99.90
8095;DHT22;4090;49.270;8.696;2023-06-22T00:45:51;26.30;99.90
8095;DHT22;4090;49.270;8.696;2023-06-22T00:48:33;26.30;99.90
8095;DHT22;4090;49.270;8.696;2023-06-22T00:51:17;26.00;99.90
8095;DHT22;4090;49.270;8.696;2023-06-22T00:54:01;25.90;99.90
8095;DHT22;4090;49.270;8.696;2023-06-22T00:56:44;25.70;99.90
8095;DHT22;4090;49.270;8.696;2023-06-22T00:59:26;25.60;99.90
8095;DHT22;4090;49.270;8.696;2023-06-22T01:02:08;25.70;99.90
8095;DHT22;4090;49.270;8.696;2023-06-22T01:04:51;25.70;99.90
8095;DHT22;4090;49.270;8.696;2023-06-22T01:07:38;25.90;99.90
8095;DHT22;4090;49.270;8.696;2023-06-22T01:10:27;25.70;99.90
8095;DHT22;4090;49.270;8.696;2023-06-22T01:13:20;25.60;99.90
8095;DHT22;4090;49.270;8.696;2023-06-22T01:16:08;25.40;99.90
8095;DHT22;4090;49.270;8.696;2023-06-22T01:18:55;25.00;99.90
8095;DHT22;4090;49.270;8.696;2023-06-22T01:21:38;24.80;99.90
8095;DHT22;4090;49.270;8.696;2023-06-22T01:24:23;24.70;99.90
8095;DHT22;4090;49.270;8.696;2023-06-22T01:27:14;24.70;99.90
8095;DHT22;4090;49.270;8.696;2023-06-22T01:30:05;24.70;99.90
8095;DHT22;4090;49.270;8.696;2023-06-22T01:32:50;24.70;99.90
8095;DHT22;4090;49.270;8.696;2023-06-22T01:35:33;24.80;99.90
8095;DHT22;4090;49.270;8.696;2023-06-22T01:38:15;24.80;99.90
8095;DHT22;4090;49.270;8.696;2023-06-22T01:40:58;24.80;99.90
8095;DHT22;4090;49.270;8.696;2023-06-22T01:43:40;24.80;99.90
8095;DHT22;4090;49.270;8.696;2023-06-22T01:46:24;24.70;99.90
8095;DHT22;4090;49.270;8.696;2023-06-22T01:49:06;24.70;99.90
8095;DHT22;4090;49.270;8.696;2023-06-22T01:51:50;24.70;99.90
8095;DHT22;4090;49.270;8.696;2023-06-22T01:54:32;24.80;99.90
8095;DHT22;4090;49.270;8.696;2023-06-22T01:57:14;24.80;99.90
8095;DHT22;4090;49.270;8.696;2023-06-22T02:00:00;24.80;99.90
8095;DHT22;4090;49.270;8.696;2023-06-22T02:02:48;24.70;99.90
8095;DHT22;4090;49.270;8.696;2023-06-22T02:05:34;24.70;99.90
8095;DHT22;4090;49.270;8.696;2023-06-22T02:08:20;24.70;99.90
8095;DHT22;4090;49.270;8.696;2023-06-22T02:11:03;24.70;99.90
8095;DHT22;4090;49.270;8.696;2023-06-22T02:13:46;24.70;99.90
8095;DHT22;4090;49.270;8.696;2023-06-22T02:16:28;24.80;99.90
8095;DHT22;4090;49.270;8.696;2023-06-22T02:19:14;24.70;99.90
8095;DHT22;4090;49.270;8.696;2023-06-22T02:21:56;24.70;99.90
8095;DHT22;4090;49.270;8.696;2023-06-22T02:24:38;24.70;99.90
8095;DHT22;4090;49.270;8.696;2023-06-22T02:27:20;24.70;99.90
8095;DHT22;4090;49.270;8.696;2023-06-22T02:30:03;24.70;99.90
8095;DHT22;4090;49.270;8.696;2023-06-22T02:32:45;24.60;99.90
8095;DHT22;4090;49.270;8.696;2023-06-22T02:35:31;24.60;99.90
8095;DHT22;4090;49.270;8.696;2023-06-22T02:38:16;24.60;99.90
8095;DHT22;4090;49.270;8.696;2023-06-22T02:40:59;24.60;99.90
8095;DHT22;4090;49.270;8.696;2023-06-22T02:43:40;24.60;99.90
8095;DHT22;4090;49.270;8.696;2023-06-22T02:46:22;24.60;99.90
8095;DHT22;4090;49.270;8.696;2023-06-22T02:49:04;24.60;99.90
8095;DHT22;4090;49.270;8.696;2023-06-22T02:51:48;24.60;99.90
8095;DHT22;4090;49.270;8.696;2023-06-22T02:54:34;24.60;99.90
8095;DHT22;4090;49.270;8.696;2023-06-22T02:57:15;24.60;99.90
8095;DHT22;4090;49.270;8.696;2023-06-22T02:59:59;24.50;99.90
8095;DHT22;4090;49.270;8.696;2023-06-22T03:02:41;24.50;99.90
8095;DHT22;4090;49.270;8.696;2023-06-22T03:05:23;24.60;99.90
8095;DHT22;4090;49.270;8.696;2023-06-22T03:08:07;24.60;99.90
8095;DHT22;4090;49.270;8.696;2023-06-22T03:10:49;24.60;99.90
8095;DHT22;4090;49.270;8.696;2023-06-22T03:13:31;24.50;99.90
8095;DHT22;4090;49.270;8.696;2023-06-22T03:16:13;24.50;99.90
8095;DHT22;4090;49.270;8.696;2023-06-22T03:18:55;24.40;99.90
8095;DHT22;4090;49.270;8.696;2023-06-22T03:21:37;24.40;99.90
8095;DHT22;4090;49.270;8.696;2023-06-22T03:24:21;24.40;99.90
8095;DHT22;4090;49.270;8.696;2023-06-22T03:27:03;24.40;99.90
8095;DHT22;4090;49.270;8.696;2023-06-22T03:29:48;24.40;99.90
8095;DHT22;4090;49.270;8.696;2023-06-22T03:32:30;24.30;99.90
8095;DHT22;4090;49.270;8.696;2023-06-22T03:35:13;24.30;99.90
8095;DHT22;4090;49.270;8.696;2023-06-22T03:37:55;24.30;99.90
8095;DHT22;4090;49.270;8.696;2023-06-22T03:40:38;24.30;99.90
8095;DHT22;4090;49.270;8.696;2023-06-22T03:43:20;24.30;99.90
8095;DHT22;4090;49.270;8.696;2023-06-22T03:46:02;24.30;99.90
8095;DHT22;4090;49.270;8.696;2023-06-22T03:48:44;24.30;99.90
8095;DHT22;4090;49.270;8.696;2023-06-22T03:51:26;24.30;99.90
8095;DHT22;4090;49.270;8.696;2023-06-22T03:54:08;24.30;99.90
8095;DHT22;4090;49.270;8.696;2023-06-22T03:56:51;24.20;99.90
8095;DHT22;4090;49.270;8.696;2023-06-22T03:59:33;24.20;99.90
8095;DHT22;4090;49.270;8.696;2023-06-22T04:02:15;24.20;99.90
8095;DHT22;4090;49.270;8.696;2023-06-22T04:04:57;24.20;99.90
8095;DHT22;4090;49.270;8.696;2023-06-22T04:07:39;24.20;99.90
8095;DHT22;4090;49.270;8.696;2023-06-22T04:10:21;24.10;99.90
8095;DHT22;4090;49.270;8.696;2023-06-22T04:13:05;24.10;99.90
8095;DHT22;4090;49.270;8.696;2023-06-22T04:15:47;24.10;99.90
8095;DHT22;4090;49.270;8.696;2023-06-22T04:18:28;24.10;99.90
8095;DHT22;4090;49.270;8.696;2023-06-22T04:21:10;24.10;99.90
8095;DHT22;4090;49.270;8.696;2023-06-22T04:23:52;24.10;99.90
8095;DHT22;4090;49.270;8.696;2023-06-22T04:26:34;24.20;99.90
8095;DHT22;4090;49.270;8.696;2023-06-22T04:29:19;24.10;99.90
8095;DHT22;4090;49.270;8.696;2023-06-22T04:32:01;24.10;99.90
8095;DHT22;4090;49.270;8.696;2023-06-22T04:34:45;24.20;99.90
8095;DHT22;4090;49.270;8.696;2023-06-22T04:37:27;24.10;99.90
8095;DHT22;4090;49.270;8.696;2023-06-22T04:40:09;24.10;99.90
8095;DHT22;4090;49.270;8.696;2023-06-22T04:42:53;24.10;99.90
8095;DHT22;4090;49.270;8.696;2023-06-22T04:45:36;24.10;99.90
8095;DHT22;4090;49.270;8.696;2023-06-22T04:48:19;24.00;99.90
8095;DHT22;4090;49.270;8.696;2023-06-22T04:51:01;24.10;99.90
8095;DHT22;4090;49.270;8.696;2023-06-22T04:53:45;24.10;99.90
8095;DHT22;4090;49.270;8.696;2023-06-22T04:56:27;24.00;99.90
8095;DHT22;4090;49.270;8.696;2023-06-22T04:59:09;24.00;99.90
8095;DHT22;4090;49.270;8.696;2023-06-22T05:01:55;24.00;99.90
8095;DHT22;4090;49.270;8.696;2023-06-22T05:04:37;24.00;99.90
8095;DHT22;4090;49.270;8.696;2023-06-22T05:07:19;24.00;99.90
8095;DHT22;4090;49.270;8.696;2023-06-22T05:10:02;24.00;99.90
8095;DHT22;4090;49.270;8.696;2023-06-22T05:12:44;24.00;99.90
8095;DHT22;4090;49.270;8.696;2023-06-22T05:15:26;24.00;99.90
8095;DHT22;4090;49.270;8.696;2023-06-22T05:18:12;23.90;99.90
8095;DHT22;4090;49.270;8.696;2023-06-22T05:20:54;23.90;99.90
8095;DHT22;4090;49.270;8.696;2023-06-22T05:23:36;23.90;99.90
8095;DHT22;4090;49.270;8.696;2023-06-22T05:26:18;23.90;99.90
8095;DHT22;4090;49.270;8.696;2023-06-22T05:29:00;23.90;99.90
8095;DHT22;4090;49.270;8.696;2023-06-22T05:31:43;23.90;99.90
8095;DHT22;4090;49.270;8.696;2023-06-22T05:34:26;23.90;99.90
8095;DHT22;4090;49.270;8.696;2023-06-22T05:37:08;23.90;99.90
8095;DHT22;4090;49.270;8.696;2023-06-22T05:39:51;23.90;99.90
8095;DHT22;4090;49.270;8.696;2023-06-22T05:42:34;23.90;99.90
8095;DHT22;4090;49.270;8.696;2023-06-22T05:45:16;23.90;99.90
8095;DHT22;4090;49.270;8.696;2023-06-22T05:47:58;23.90;99.90
8095;DHT22;4090;49.270;8.696;2023-06-22T05:50:41;23.90;99.90
8095;DHT22;4090;49.270;8.696;2023-06-22T05:53:23;23.90;99.90
8095;DHT22;4090;49.270;8.696;2023-06-22T05:56:05;23.90;99.90
8095;DHT22;4090;49.270;8.696;2023-06-22T05:58:47;24.00;99.90
8095;DHT22;4090;49.270;8.696;2023-06-22T06:01:29;24.00;99.90
8095;DHT22;4090;49.270;8.696;2023-06-22T06:04:16;24.00;99.90
8095;DHT22;4090;49.270;8.696;2023-06-22T06:07:00;24.00;99.90
8095;DHT22;4090;49.270;8.696;2023-06-22T06:09:42;24.00;99.90
8095;DHT22;4090;49.270;8.696;2023-06-22T06:12:23;24.00;99.90
8095;DHT22;4090;49.270;8.696;2023-06-22T06:15:06;24.00;99.90
8095;DHT22;4090;49.270;8.696;2023-06-22T06:17:49;24.00;99.90
8095;DHT22;4090;49.270;8.696;2023-06-22T06:20:31;24.00;99.90
8095;DHT22;4090;49.270;8.696;2023-06-22T06:23:15;24.00;99.90
8095;DHT22;4090;49.270;8.696;2023-06-22T06:25:57;24.00;99.90
8095;DHT22;4090;49.270;8.696;2023-06-22T06:28:39;24.00;99.90
8095;DHT22;4090;49.270;8.696;2023-06-22T06:31:21;24.00;99.90
8095;DHT22;4090;49.270;8.696;2023-06-22T06:34:03;24.00;99.90
8095;DHT22;4090;49.270;8.696;2023-06-22T06:36:45;24.00;99.90
8095;DHT22;4090;49.270;8.696;2023-06-22T06:39:28;24.00;99.90
8095;DHT22;4090;49.270;8.696;2023-06-22T06:42:10;24.00;99.90
8095;DHT22;4090;49.270;8.696;2023-06-22T06:44:52;24.00;99.90
8095;DHT22;4090;49.270;8.696;2023-06-22T06:47:35;24.00;99.90
8095;DHT22;4090;49.270;8.696;2023-06-22T06:50:17;24.00;99.90
8095;DHT22;4090;49.270;8.696;2023-06-22T06:53:00;24.00;99.90
8095;DHT22;4090;49.270;8.696;2023-06-22T06:55:43;24.10;99.90
8095;DHT22;4090;49.270;8.696;2023-06-22T06:58:26;24.10;99.90
8095;DHT22;4090;49.270;8.696;2023-06-22T07:01:08;24.10;99.90
8095;DHT22;4090;49.270;8.696;2023-06-22T07:03:49;24.10;99.90
8095;DHT22;4090;49.270;8.696;2023-06-22T07:06:31;24.20;99.90
8095;DHT22;4090;49.270;8.696;2023-06-22T07:09:14;24.20;99.90
8095;DHT22;4090;49.270;8.696;2023-06-22T07:11:57;24.20;99.90
8095;DHT22;4090;49.270;8.696;2023-06-22T07:14:39;24.20;99.90
8095;DHT22;4090;49.270;8.696;2023-06-22T07:17:21;24.20;99.90
8095;DHT22;4090;49.270;8.696;2023-06-22T07:20:04;24.20;99.90
8095;DHT22;4090;49.270;8.696;2023-06-22T07:22:51;24.30;99.90
8095;DHT22;4090;49.270;8.696;2023-06-22T07:25:33;24.30;99.90
8095;DHT22;4090;49.270;8.696;2023-06-22T07:28:16;24.30;99.90
8095;DHT22;4090;49.270;8.696;2023-06-22T07:30:58;24.30;99.90
8095;DHT22;4090;49.270;8.696;2023-06-22T07:33:40;24.40;99.90
8095;DHT22;4090;49.270;8.696;2023-06-22T07:36:22;24.40;99.90
8095;DHT22;4090;49.270;8.696;2023-06-22T07:39:03;24.40;99.90
8095;DHT22;4090;49.270;8.696;2023-06-22T07:41:45;24.40;99.90
8095;DHT22;4090;49.270;8.696;2023-06-22T07:44:29;24.50;99.90
8095;DHT22;4090;49.270;8.696;2023-06-22T07:47:10;24.50;99.90
8095;DHT22;4090;49.270;8.696;2023-06-22T07:49:52;24.50;99.90
8095;DHT22;4090;49.270;8.696;2023-06-22T07:52:35;24.50;99.90
8095;DHT22;4090;49.270;8.696;2023-06-22T07:55:17;24.50;99.90
8095;DHT22;4090;49.270;8.696;2023-06-22T07:58:00;24.60;99.90
8095;DHT22;4090;49.270;8.696;2023-06-22T08:00:43;24.60;99.90
8095;DHT22;4090;49.270;8.696;2023-06-22T08:03:25;24.60;99.90
8095;DHT22;4090;49.270;8.696;2023-06-22T08:06:07;24.60;99.90
8095;DHT22;4090;49.270;8.696;2023-06-22T08:08:50;24.60;99.90
8095;DHT22;4090;49.270;8.696;2023-06-22T08:11:35;24.70;99.90
8095;DHT22;4090;49.270;8.696;2023-06-22T08:14:16;24.70;99.90
8095;DHT22;4090;49.270;8.696;2023-06-22T08:17:00;24.70;99.90
8095;DHT22;4090;49.270;8.696;2023-06-22T08:19:41;24.70;99.90
8095;DHT22;4090;49.270;8.696;2023-06-22T08:22:23;24.80;99.90
8095;DHT22;4090;49.270;8.696;2023-06-22T08:25:06;24.80;99.90
8095;DHT22;4090;49.270;8.696;2023-06-22T08:27:49;24.80;99.90
8095;DHT22;4090;49.270;8.696;2023-06-22T08:30:31;24.90;99.90
8095;DHT22;4090;49.270;8.696;2023-06-22T08:33:14;24.80;99.90
8095;DHT22;4090;49.270;8.696;2023-06-22T08:35:56;24.90;99.90
8095;DHT22;4090;49.270;8.696;2023-06-22T08:38:38;24.90;99.90
8095;DHT22;4090;49.270;8.696;2023-06-22T08:41:20;24.90;99.90
8095;DHT22;4090;49.270;8.696;2023-06-22T08:44:01;25.00;99.90
8095;DHT22;4090;49.270;8.696;2023-06-22T08:46:44;25.00;99.90
8095;DHT22;4090;49.270;8.696;2023-06-22T08:49:27;25.00;99.90
8095;DHT22;4090;49.270;8.696;2023-06-22T08:52:09;25.10;99.90
8095;DHT22;4090;49.270;8.696;2023-06-22T08:54:51;25.10;99.90
8095;DHT22;4090;49.270;8.696;2023-06-22T08:57:33;25.20;99.90
8095;DHT22;4090;49.270;8.696;2023-06-22T09:00:16;25.20;99.90
8095;DHT22;4090;49.270;8.696;2023-06-22T09:03:00;25.20;99.90
8095;DHT22;4090;49.270;8.696;2023-06-22T09:05:43;25.40;99.90
8095;DHT22;4090;49.270;8.696;2023-06-22T09:08:26;25.60;99.90
8095;DHT22;4090;49.270;8.696;2023-06-22T09:11:08;25.70;99.90
8095;DHT22;4090;49.270;8.696;2023-06-22T09:13:50;25.70;99.90
8095;DHT22;4090;49.270;8.696;2023-06-22T09:16:33;25.70;99.90
8095;DHT22;4090;49.270;8.696;2023-06-22T09:19:15;25.80;99.90
8095;DHT22;4090;49.270;8.696;2023-06-22T09:21:58;25.80;99.90
8095;DHT22;4090;49.270;8.696;2023-06-22T09:24:40;25.80;99.90
8095;DHT22;4090;49.270;8.696;2023-06-22T09:27:22;25.70;99.90
8095;DHT22;4090;49.270;8.696;2023-06-22T09:30:05;25.80;99.90
8095;DHT22;4090;49.270;8.696;2023-06-22T09:32:47;25.80;99.90
8095;DHT22;4090;49.270;8.696;2023-06-22T09:35:29;25.90;99.90
8095;DHT22;4090;49.270;8.696;2023-06-22T09:38:12;25.90;99.90
8095;DHT22;4090;49.270;8.696;2023-06-22T09:40:54;25.90;99.90
8095;DHT22;4090;49.270;8.696;2023-06-22T09:43:36;26.00;99.90
8095;DHT22;4090;49.270;8.696;2023-06-22T09:46:18;26.10;99.90
8095;DHT22;4090;49.270;8.696;2023-06-22T09:49:02;26.20;99.90
8095;DHT22;4090;49.270;8.696;2023-06-22T09:51:44;26.20;99.90
8095;DHT22;4090;49.270;8.696;2023-06-22T09:54:27;26.30;99.90
8095;DHT22;4090;49.270;8.696;2023-06-22T09:57:09;26.40;99.90
8095;DHT22;4090;49.270;8.696;2023-06-22T09:59:51;26.50;99.90
8095;DHT22;4090;49.270;8.696;2023-06-22T10:02:33;26.50;99.90
8095;DHT22;4090;49.270;8.696;2023-06-22T10:05:15;26.60;99.90
8095;DHT22;4090;49.270;8.696;2023-06-22T10:07:57;26.50;99.90
8095;DHT22;4090;49.270;8.696;2023-06-22T10:10:40;26.60;99.90
8095;DHT22;4090;49.270;8.696;2023-06-22T10:13:22;26.60;99.90
8095;DHT22;4090;49.270;8.696;2023-06-22T10:16:04;26.70;99.90
8095;DHT22;4090;49.270;8.696;2023-06-22T10:18:46;26.70;99.90
8095;DHT22;4090;49.270;8.696;2023-06-22T10:21:28;26.80;99.90
8095;DHT22;4090;49.270;8.696;2023-06-22T10:24:10;26.90;99.90
8095;DHT22;4090;49.270;8.696;2023-06-22T10:26:53;26.90;99.90
8095;DHT22;4090;49.270;8.696;2023-06-22T10:29:35;27.00;99.90
8095;DHT22;4090;49.270;8.696;2023-06-22T10:32:17;27.10;99.90
8095;DHT22;4090;49.270;8.696;2023-06-22T10:34:58;27.20;99.90
8095;DHT22;4090;49.270;8.696;2023-06-22T10:37:40;27.30;99.90
8095;DHT22;4090;49.270;8.696;2023-06-22T10:40:23;27.30;99.90
8095;DHT22;4090;49.270;8.696;2023-06-22T10:43:07;27.40;99.90
8095;DHT22;4090;49.270;8.696;2023-06-22T10:45:48;27.40;99.90
8095;DHT22;4090;49.270;8.696;2023-06-22T10:48:30;27.30;99.90
8095;DHT22;4090;49.270;8.696;2023-06-22T10:51:12;27.30;99.90
8095;DHT22;4090;49.270;8.696;2023-06-22T10:53:54;27.40;99.90
8095;DHT22;4090;49.270;8.696;2023-06-22T10:56:36;27.40;99.90
8095;DHT22;4090;49.270;8.696;2023-06-22T10:59:19;27.40;99.90
8095;DHT22;4090;49.270;8.696;2023-06-22T11:02:02;27.40;99.90
8095;DHT22;4090;49.270;8.696;2023-06-22T11:04:44;27.50;99.90
8095;DHT22;4090;49.270;8.696;2023-06-22T11:07:26;27.60;99.90
8095;DHT22;4090;49.270;8.696;2023-06-22T11:10:09;27.60;99.90
8095;DHT22;4090;49.270;8.696;2023-06-22T11:12:51;27.60;99.90
8095;DHT22;4090;49.270;8.696;2023-06-22T11:15:35;27.60;99.90
8095;DHT22;4090;49.270;8.696;2023-06-22T11:18:17;27.70;99.90
8095;DHT22;4090;49.270;8.696;2023-06-22T11:20:59;27.80;99.90
8095;DHT22;4090;49.270;8.696;2023-06-22T11:23:42;27.90;99.90
8095;DHT22;4090;49.270;8.696;2023-06-22T11:26:24;27.90;99.90
8095;DHT22;4090;49.270;8.696;2023-06-22T11:29:07;27.90;99.90
8095;DHT22;4090;49.270;8.696;2023-06-22T11:31:51;28.00;99.90
8095;DHT22;4090;49.270;8.696;2023-06-22T11:34:32;28.00;99.90
8095;DHT22;4090;49.270;8.696;2023-06-22T11:37:14;28.00;99.90
8095;DHT22;4090;49.270;8.696;2023-06-22T11:39:56;28.00;99.90
8095;DHT22;4090;49.270;8.696;2023-06-22T11:42:39;28.10;99.90
8095;DHT22;4090;49.270;8.696;2023-06-22T11:45:20;28.20;99.90
8095;DHT22;4090;49.270;8.696;2023-06-22T11:48:04;28.20;99.90
8095;DHT22;4090;49.270;8.696;2023-06-22T11:50:46;28.30;99.90
8095;DHT22;4090;49.270;8.696;2023-06-22T11:53:28;28.30;99.90
8095;DHT22;4090;49.270;8.696;2023-06-22T11:56:10;28.30;99.90
8095;DHT22;4090;49.270;8.696;2023-06-22T11:58:52;28.40;99.90
8095;DHT22;4090;49.270;8.696;2023-06-22T12:01:34;28.50;99.90
8095;DHT22;4090;49.270;8.696;2023-06-22T12:04:18;28.70;99.90
8095;DHT22;4090;49.270;8.696;2023-06-22T12:06:59;28.70;99.90
8095;DHT22;4090;49.270;8.696;2023-06-22T12:09:43;28.70;99.90
8095;DHT22;4090;49.270;8.696;2023-06-22T12:12:25;28.60;99.90
8095;DHT22;4090;49.270;8.696;2023-06-22T12:15:08;28.70;99.90
8095;DHT22;4090;49.270;8.696;2023-06-22T12:17:50;28.70;99.90
8095;DHT22;4090;49.270;8.696;2023-06-22T12:20:33;28.80;99.90
8095;DHT22;4090;49.270;8.696;2023-06-22T12:23:15;28.80;99.90
8095;DHT22;4090;49.270;8.696;2023-06-22T12:25:57;28.90;99.90
8095;DHT22;4090;49.270;8.696;2023-06-22T12:28:43;29.00;99.90
8095;DHT22;4090;49.270;8.696;2023-06-22T12:31:25;29.00;99.90
8095;DHT22;4090;49.270;8.696;2023-06-22T12:34:06;29.10;99.90
8095;DHT22;4090;49.270;8.696;2023-06-22T12:36:50;29.10;99.90
8095;DHT22;4090;49.270;8.696;2023-06-22T12:39:32;29.10;99.90
8095;DHT22;4090;49.270;8.696;2023-06-22T12:42:14;29.10;99.90
8095;DHT22;4090;49.270;8.696;2023-06-22T12:44:56;29.10;99.90
8095;DHT22;4090;49.270;8.696;2023-06-22T12:47:38;29.00;99.90
8095;DHT22;4090;49.270;8.696;2023-06-22T12:50:20;29.10;99.90
8095;DHT22;4090;49.270;8.696;2023-06-22T12:53:03;29.10;99.90
8095;DHT22;4090;49.270;8.696;2023-06-22T12:55:46;29.10;99.90
8095;DHT22;4090;49.270;8.696;2023-06-22T12:58:28;29.30;99.90
8095;DHT22;4090;49.270;8.696;2023-06-22T13:01:10;29.40;99.90
8095;DHT22;4090;49.270;8.696;2023-06-22T13:03:52;29.60;99.90
8095;DHT22;4090;49.270;8.696;2023-06-22T13:06:34;29.60;99.90
8095;DHT22;4090;49.270;8.696;2023-06-22T13:09:18;29.60;99.90
8095;DHT22;4090;49.270;8.696;2023-06-22T13:12:00;29.50;99.90
8095;DHT22;4090;49.270;8.696;2023-06-22T13:14:42;29.60;99.90
8095;DHT22;4090;49.270;8.696;2023-06-22T13:17:24;29.60;99.90
8095;DHT22;4090;49.270;8.696;2023-06-22T13:20:07;29.70;99.90
8095;DHT22;4090;49.270;8.696;2023-06-22T13:22:49;29.70;99.90
8095;DHT22;4090;49.270;8.696;2023-06-22T13:25:32;29.80;99.90
8095;DHT22;4090;49.270;8.696;2023-06-22T13:28:14;29.60;99.90
8095;DHT22;4090;49.270;8.696;2023-06-22T13:30:56;29.60;99.90
8095;DHT22;4090;49.270;8.696;2023-06-22T13:33:38;29.80;99.90
8095;DHT22;4090;49.270;8.696;2023-06-22T13:36:21;29.90;99.90
8095;DHT22;4090;49.270;8.696;2023-06-22T13:39:03;29.90;99.90
8095;DHT22;4090;49.270;8.696;2023-06-22T13:41:47;29.90;99.90
8095;DHT22;4090;49.270;8.696;2023-06-22T13:44:28;29.90;99.90
8095;DHT22;4090;49.270;8.696;2023-06-22T13:47:10;30.00;99.90
8095;DHT22;4090;49.270;8.696;2023-06-22T13:49:52;30.00;99.90
8095;DHT22;4090;49.270;8.696;2023-06-22T13:52:34;30.00;99.90
8095;DHT22;4090;49.270;8.696;2023-06-22T13:55:17;29.90;99.90
8095;DHT22;4090;49.270;8.696;2023-06-22T13:58:02;30.00;99.90
8095;DHT22;4090;49.270;8.696;2023-06-22T14:00:44;29.70;99.90
8095;DHT22;4090;49.270;8.696;2023-06-22T14:03:26;29.70;99.90
8095;DHT22;4090;49.270;8.696;2023-06-22T14:06:08;29.80;99.90
8095;DHT22;4090;49.270;8.696;2023-06-22T14:08:51;29.90;99.90
8095;DHT22;4090;49.270;8.696;2023-06-22T14:11:33;30.00;99.90
8095;DHT22;4090;49.270;8.696;2023-06-22T14:14:17;30.10;99.90
8095;DHT22;4090;49.270;8.696;2023-06-22T14:16:58;29.90;99.90
8095;DHT22;4090;49.270;8.696;2023-06-22T14:19:40;29.70;99.90
8095;DHT22;4090;49.270;8.696;2023-06-22T14:22:22;29.90;99.90
8095;DHT22;4090;49.270;8.696;2023-06-22T14:25:05;30.00;99.90
8095;DHT22;4090;49.270;8.696;2023-06-22T14:27:47;30.20;99.90
8095;DHT22;4090;49.270;8.696;2023-06-22T14:30:30;30.60;99.90
8095;DHT22;4090;49.270;8.696;2023-06-22T14:33:12;30.80;99.90
8095;DHT22;4090;49.270;8.696;2023-06-22T14:35:54;30.50;99.90
8095;DHT22;4090;49.270;8.696;2023-06-22T14:38:36;30.20;99.90
8095;DHT22;4090;49.270;8.696;2023-06-22T14:41:19;30.20;99.90
8095;DHT22;4090;49.270;8.696;2023-06-22T14:44:01;30.20;99.90
8095;DHT22;4090;49.270;8.696;2023-06-22T14:46:44;30.20;99.90
8095;DHT22;4090;49.270;8.696;2023-06-22T14:49:26;30.20;99.90
8095;DHT22;4090;49.270;8.696;2023-06-22T14:52:08;30.10;99.90
8095;DHT22;4090;49.270;8.696;2023-06-22T14:54:50;29.90;99.90
8095;DHT22;4090;49.270;8.696;2023-06-22T14:57:33;30.00;99.90
8095;DHT22;4090;49.270;8.696;2023-06-22T15:00:15;29.70;99.90
8095;DHT22;4090;49.270;8.696;2023-06-22T15:02:58;29.70;99.90
8095;DHT22;4090;49.270;8.696;2023-06-22T15:05:40;29.60;99.90
8095;DHT22;4090;49.270;8.696;2023-06-22T15:08:22;29.80;99.90
8095;DHT22;4090;49.270;8.696;2023-06-22T15:11:04;29.70;99.90
8095;DHT22;4090;49.270;8.696;2023-06-22T15:13:46;29.80;99.90
8095;DHT22;4090;49.270;8.696;2023-06-22T15:16:28;29.90;99.90
8095;DHT22;4090;49.270;8.696;2023-06-22T15:19:11;30.20;99.90
8095;DHT22;4090;49.270;8.696;2023-06-22T15:21:54;30.00;99.90
8095;DHT22;4090;49.270;8.696;2023-06-22T15:24:35;29.90;99.90
8095;DHT22;4090;49.270;8.696;2023-06-22T15:27:17;29.90;99.90
8095;DHT22;4090;49.270;8.696;2023-06-22T15:29:59;30.00;99.90
8095;DHT22;4090;49.270;8.696;2023-06-22T15:32:43;30.00;99.90
8095;DHT22;4090;49.270;8.696;2023-06-22T15:35:26;30.20;99.90
8095;DHT22;4090;49.270;8.696;2023-06-22T15:38:08;30.00;99.90
8095;DHT22;4090;49.270;8.696;2023-06-22T15:40:50;30.00;99.90
8095;DHT22;4090;49.270;8.696;2023-06-22T15:43:32;30.00;99.90
8095;DHT22;4090;49.270;8.696;2023-06-22T15:46:13;30.20;99.90
8095;DHT22;4090;49.270;8.696;2023-06-22T15:48:58;30.00;99.90
8095;DHT22;4090;49.270;8.696;2023-06-22T15:51:41;29.90;99.90
8095;DHT22;4090;49.270;8.696;2023-06-22T15:54:23;30.00;99.90
8095;DHT22;4090;49.270;8.696;2023-06-22T15:57:05;30.20;99.90
8095;DHT22;4090;49.270;8.696;2023-06-22T15:59:47;30.20;99.90
8095;DHT22;4090;49.270;8.696;2023-06-22T16:02:29;30.20;99.90
8095;DHT22;4090;49.270;8.696;2023-06-22T16:05:12;30.30;99.90
8095;DHT22;4090;49.270;8.696;2023-06-22T16:07:56;30.30;99.90
8095;DHT22;4090;49.270;8.696;2023-06-22T16:10:38;30.40;99.90
8095;DHT22;4090;49.270;8.696;2023-06-22T16:13:20;30.40;99.90
8095;DHT22;4090;49.270;8.696;2023-06-22T16:16:02;30.60;99.90
8095;DHT22;4090;49.270;8.696;2023-06-22T16:18:44;30.60;99.90
8095;DHT22;4090;49.270;8.696;2023-06-22T16:21:27;30.50;99.90
8095;DHT22;4090;49.270;8.696;2023-06-22T16:24:10;30.50;99.90
8095;DHT22;4090;49.270;8.696;2023-06-22T16:26:52;30.60;99.90
8095;DHT22;4090;49.270;8.696;2023-06-22T16:29:35;30.70;99.90
8095;DHT22;4090;49.270;8.696;2023-06-22T16:32:19;30.90;99.90
8095;DHT22;4090;49.270;8.696;2023-06-22T16:35:01;31.00;99.90
8095;DHT22;4090;49.270;8.696;2023-06-22T16:37:43;31.30;99.90
8095;DHT22;4090;49.270;8.696;2023-06-22T16:40:26;31.40;99.90
8095;DHT22;4090;49.270;8.696;2023-06-22T16:43:08;31.10;99.90
8095;DHT22;4090;49.270;8.696;2023-06-22T16:45:50;30.90;99.90
8095;DHT22;4090;49.270;8.696;2023-06-22T16:48:32;31.00;99.90
8095;DHT22;4090;49.270;8.696;2023-06-22T16:51:13;31.00;99.90
8095;DHT22;4090;49.270;8.696;2023-06-22T16:53:56;30.90;99.70
8095;DHT22;4090;49.270;8.696;2023-06-22T16:56:39;30.90;99.60
8095;DHT22;4090;49.270;8.696;2023-06-22T16:59:21;30.60;99.90
8095;DHT22;4090;49.270;8.696;2023-06-22T17:02:04;30.70;99.80
8095;DHT22;4090;49.270;8.696;2023-06-22T17:04:47;30.60;99.90
8095;DHT22;4090;49.270;8.696;2023-06-22T17:07:30;30.70;99.90
8095;DHT22;4090;49.270;8.696;2023-06-22T17:10:15;30.60;99.90
8095;DHT22;4090;49.270;8.696;2023-06-22T17:12:58;30.50;99.90
8095;DHT22;4090;49.270;8.696;2023-06-22T17:15:42;30.50;99.90
8095;DHT22;4090;49.270;8.696;2023-06-22T17:18:25;30.40;99.90
8095;DHT22;4090;49.270;8.696;2023-06-22T17:21:06;30.30;99.90
8095;DHT22;4090;49.270;8.696;2023-06-22T17:23:49;30.50;99.90
8095;DHT22;4090;49.270;8.696;2023-06-22T17:26:31;30.40;99.80
8095;DHT22;4090;49.270;8.696;2023-06-22T17:29:14;30.30;99.80
8095;DHT22;4090;49.270;8.696;2023-06-22T17:31:57;30.30;99.90
8095;DHT22;4090;49.270;8.696;2023-06-22T17:34:39;30.30;99.90
8095;DHT22;4090;49.270;8.696;2023-06-22T17:37:21;30.20;99.90
8095;DHT22;4090;49.270;8.696;2023-06-22T17:40:04;30.20;99.90
8095;DHT22;4090;49.270;8.696;2023-06-22T17:42:46;30.10;99.90